Terminal Aerodrome Forecast
Issued by NWS Atlanta, GA

Home | Current Version | Previous Version | Text Only | Print | Product List | Glossary On
Versions: 1 2 3 4 5 6 7 8 9 10 11 12 13 14 15 16 17 18 19 20 21 22 23 24 25 26 27 28 29 30 31 32 33 34 35 36 37 38 39 40 41 42 43
743
FTUS42 KFFC 061356 AAB
TAFATL
TAF AMD
KATL 061356Z 0614/0718 09010KT 3SM -SHRA BR OVC003
      TEMPO 0614/0615 VRB10G18KT 1SM SHRA BR OVC004
     FM061600 15010G18KT 3SM -RA BKN006
     FM061800 25013G20KT P6SM BKN015
     FM062300 31012G18KT P6SM BKN025
     FM070200 31008KT P6SM BKN015
     FM070900 32006KT P6SM SCT020=

USA.gov is the U.S. government's official web portal to all federal, state and local government web resources and services.